createdAt,value
2022-09-04T00:01:45.038Z,69.06
2022-09-04T00:04:26.181Z,68.96
2022-09-04T00:07:09.494Z,68.93
2022-09-04T00:09:52.927Z,69.13
2022-09-04T00:12:31.320Z,69.09
2022-09-04T00:15:12.232Z,69.24
2022-09-04T00:17:52.560Z,69.21
2022-09-04T00:20:35.856Z,69.17
2022-09-04T00:23:14.784Z,69.29
2022-09-04T00:25:57.403Z,69.29
2022-09-04T00:28:36.379Z,69.02
2022-09-04T00:31:19.760Z,69.10
2022-09-04T00:34:07.408Z,69.15
2022-09-04T00:36:48.169Z,69.12
2022-09-04T00:39:38.100Z,69.03
2022-09-04T00:42:26.782Z,69.11
2022-09-04T00:45:14.659Z,68.93
2022-09-04T00:48:11.143Z,68.87
2022-09-04T00:51:08.186Z,68.80
2022-09-04T00:53:52.596Z,69.06
2022-09-04T00:56:52.671Z,68.99
2022-09-04T00:59:39.839Z,68.82
2022-09-04T01:02:19.235Z,69.45
2022-09-04T01:05:08.281Z,69.70
2022-09-04T01:07:56.759Z,69.66
2022-09-04T01:10:36.526Z,69.73
2022-09-04T01:13:13.910Z,69.94
2022-09-04T01:15:52.763Z,70.45
2022-09-04T01:18:32.718Z,70.76
2022-09-04T01:21:23.593Z,70.83
2022-09-04T01:24:21.669Z,70.69
2022-09-04T01:27:00.948Z,70.63
2022-09-04T01:29:42.684Z,70.73
2022-09-04T01:32:25.569Z,70.73
2022-09-04T01:35:09.949Z,70.48
2022-09-04T01:37:52.755Z,70.39
2022-09-04T01:40:36.111Z,70.55
2022-09-04T01:43:12.497Z,70.52
2022-09-04T01:46:06.357Z,70.57
2022-09-04T01:48:47.274Z,70.80
2022-09-04T01:51:26.238Z,70.78
2022-09-04T01:54:18.906Z,70.94
2022-09-04T01:57:08.445Z,70.94
2022-09-04T01:59:53.091Z,70.88
2022-09-04T02:02:34.136Z,71.22
2022-09-04T02:05:15.805Z,71.31
2022-09-04T02:07:51.653Z,70.89
2022-09-04T02:10:36.694Z,71.02
2022-09-04T02:13:22.433Z,70.86
2022-09-04T02:16:04.378Z,70.93
2022-09-04T02:18:45.496Z,70.81
2022-09-04T02:21:27.140Z,71.02
2022-09-04T02:24:05.879Z,71.09
2022-09-04T02:26:43.824Z,70.85
2022-09-04T02:29:23.115Z,71.42
2022-09-04T02:32:01.248Z,71.38
2022-09-04T02:34:41.878Z,71.43
2022-09-04T02:37:24.214Z,71.81
2022-09-04T02:40:04.237Z,71.86
2022-09-04T02:42:50.435Z,72.00
2022-09-04T02:45:34.701Z,71.56
2022-09-04T02:48:14.360Z,71.68
2022-09-04T02:51:00.692Z,72.08
2022-09-04T02:53:39.842Z,72.82
2022-09-04T02:56:24.020Z,72.47
2022-09-04T02:59:11.583Z,71.88
2022-09-04T03:01:51.865Z,71.95
2022-09-04T03:04:31.744Z,72.26
2022-09-04T03:07:10.837Z,72.38
2022-09-04T03:09:48.512Z,72.74
2022-09-04T03:12:33.142Z,72.86
2022-09-04T03:15:15.305Z,73.13
2022-09-04T03:17:55.358Z,73.22
2022-09-04T03:20:29.655Z,73.28
2022-09-04T03:23:09.009Z,73.46
2022-09-04T03:25:55.330Z,73.39
2022-09-04T03:28:36.979Z,73.57
2022-09-04T03:31:14.547Z,73.69
2022-09-04T03:33:53.795Z,74.14
2022-09-04T03:36:37.147Z,74.27
2022-09-04T03:39:17.621Z,74.41
2022-09-04T03:41:58.921Z,75.05
2022-09-04T03:44:44.811Z,75.54
2022-09-04T03:47:25.437Z,75.34
2022-09-04T03:50:06.365Z,75.26
2022-09-04T03:52:50.532Z,75.42
2022-09-04T03:55:56.556Z,75.71
2022-09-04T03:58:38.176Z,76.13
2022-09-04T04:01:13.546Z,75.86
2022-09-04T04:04:00.154Z,75.73
2022-09-04T04:06:39.109Z,76.10
2022-09-04T04:09:31.555Z,75.95
2022-09-04T04:12:27.500Z,76.09
2022-09-04T04:15:13.576Z,76.28
2022-09-04T04:18:04.390Z,76.21
2022-09-04T04:20:45.606Z,76.35
2022-09-04T04:23:50.173Z,76.51
2022-09-04T04:26:30.740Z,76.50
2022-09-04T04:29:21.342Z,75.86
2022-09-04T04:32:13.754Z,75.70
2022-09-04T04:35:03.444Z,75.58
2022-09-04T04:37:44.511Z,75.73
2022-09-04T04:40:25.746Z,75.95
2022-09-04T04:43:06.408Z,75.98
2022-09-04T04:45:54.829Z,75.99
2022-09-04T04:48:56.965Z,76.08
2022-09-04T04:51:51.056Z,76.43
2022-09-04T04:54:39.155Z,76.45
2022-09-04T04:57:21.892Z,76.39
2022-09-04T05:00:06.511Z,76.45
2022-09-04T05:02:49.277Z,76.51
2022-09-04T05:05:29.634Z,76.60
2022-09-04T05:08:08.656Z,76.87
2022-09-04T05:10:46.435Z,76.99
2022-09-04T05:13:25.242Z,77.09
2022-09-04T05:16:09.513Z,77.14
2022-09-04T05:18:52.048Z,77.16
2022-09-04T05:21:30.098Z,77.16
2022-09-04T05:24:08.406Z,77.14
2022-09-04T05:26:50.378Z,77.06
2022-09-04T05:29:32.652Z,77.02
2022-09-04T05:32:19.045Z,77.15
2022-09-04T05:35:05.340Z,77.25
2022-09-04T05:37:43.997Z,77.28
2022-09-04T05:40:29.514Z,77.35
2022-09-04T05:43:17.920Z,77.20
2022-09-04T05:46:05.948Z,77.28
2022-09-04T05:48:47.546Z,77.24
2022-09-04T05:51:55.138Z,77.14
2022-09-04T05:54:58.626Z,76.88
2022-09-04T05:57:42.777Z,76.55
2022-09-04T06:00:17.448Z,76.50
2022-09-04T06:03:33.366Z,73.34
2022-09-04T06:06:18.068Z,68.49
2022-09-04T06:09:20.015Z,68.70
2022-09-04T06:12:08.548Z,68.99
2022-09-04T06:15:02.733Z,70.22
2022-09-04T06:17:50.764Z,69.31
2022-09-04T06:20:43.034Z,67.60
2022-09-04T06:23:30.919Z,65.40
2022-09-04T06:26:27.678Z,64.11
2022-09-04T06:29:16.005Z,61.69
2022-09-04T06:32:04.470Z,60.06
2022-09-04T06:34:58.973Z,63.02
2022-09-04T06:37:38.471Z,64.79
2022-09-04T06:40:38.983Z,64.70
2022-09-04T06:43:22.108Z,59.83
2022-09-04T06:46:07.216Z,58.64
2022-09-04T06:48:53.126Z,57.22
2022-09-04T06:51:39.655Z,57.09
2022-09-04T06:54:27.881Z,55.28
2022-09-04T06:57:19.081Z,52.75
2022-09-04T07:00:06.020Z,52.73
2022-09-04T07:03:13.701Z,52.98
2022-09-04T07:05:55.303Z,51.79
2022-09-04T07:08:44.110Z,52.55
2022-09-04T07:11:30.554Z,52.43
2022-09-04T07:14:31.563Z,51.94
2022-09-04T07:17:12.305Z,52.14
2022-09-04T07:20:04.484Z,52.08
2022-09-04T07:23:16.952Z,52.80
2022-09-04T07:26:00.665Z,56.24
2022-09-04T07:29:03.140Z,58.16
2022-09-04T07:31:43.019Z,58.78
2022-09-04T07:34:24.982Z,60.67
2022-09-04T07:37:01.538Z,61.57
2022-09-04T07:39:39.657Z,61.81
2022-09-04T07:42:17.078Z,62.63
2022-09-04T07:45:00.698Z,62.21
2022-09-04T07:47:38.602Z,62.01
2022-09-04T07:50:16.659Z,60.56
2022-09-04T07:53:08.300Z,60.39
2022-09-04T07:55:46.821Z,60.58
2022-09-04T07:58:45.663Z,60.92
2022-09-04T08:01:37.058Z,60.30
2022-09-04T08:04:51.121Z,59.88
2022-09-04T08:07:47.941Z,60.27
2022-09-04T08:10:31.588Z,59.83
2022-09-04T08:13:43.999Z,59.85
2022-09-04T08:16:23.987Z,60.12
2022-09-04T08:19:15.674Z,60.08
2022-09-04T08:21:50.948Z,59.57
2022-09-04T08:24:50.151Z,59.37
2022-09-04T08:27:40.493Z,60.32
2022-09-04T08:30:20.185Z,60.95
2022-09-04T08:33:18.738Z,61.76
2022-09-04T08:35:57.333Z,62.16
2022-09-04T08:38:46.123Z,62.60
2022-09-04T08:41:47.159Z,62.05
2022-09-04T08:44:53.563Z,61.24
2022-09-04T08:48:02.255Z,61.07
2022-09-04T08:50:57.978Z,60.60
2022-09-04T08:53:55.160Z,60.45
2022-09-04T08:56:36.304Z,60.64
2022-09-04T08:59:37.832Z,60.24
2022-09-04T09:02:42.511Z,59.85
2022-09-04T09:05:33.464Z,59.92
2022-09-04T09:08:38.836Z,60.03
2022-09-04T09:11:43.348Z,59.84
2022-09-04T09:14:48.415Z,59.45
2022-09-04T09:17:41.839Z,59.62
2022-09-04T09:20:28.841Z,60.42
2022-09-04T09:23:36.179Z,60.97
2022-09-04T09:26:31.106Z,61.27
2022-09-04T09:29:30.523Z,61.50
2022-09-04T09:32:37.069Z,61.68
2022-09-04T09:35:56.010Z,62.16
2022-09-04T09:38:58.865Z,62.36
2022-09-04T09:41:59.541Z,62.05
2022-09-04T09:45:00.324Z,61.11
2022-09-04T09:48:05.425Z,60.53
2022-09-04T09:51:03.274Z,59.77
2022-09-04T09:54:25.496Z,58.82
2022-09-04T09:57:33.535Z,59.14
2022-09-04T10:00:11.960Z,59.62
2022-09-04T10:03:12.113Z,59.81
2022-09-04T10:06:30.181Z,59.48
2022-09-04T10:09:34.611Z,60.41
2022-09-04T10:12:33.739Z,60.17
2022-09-04T10:15:48.882Z,60.27
2022-09-04T10:19:06.241Z,60.44
2022-09-04T10:22:11.766Z,60.18
2022-09-04T10:25:13.890Z,60.19
2022-09-04T10:28:12.488Z,60.08
2022-09-04T10:31:11.203Z,60.04
2022-09-04T10:34:00.890Z,59.65
2022-09-04T10:36:45.451Z,59.66
2022-09-04T10:39:45.718Z,59.45
2022-09-04T10:42:34.439Z,59.56
2022-09-04T10:45:22.179Z,59.13
2022-09-04T10:48:28.451Z,59.22
2022-09-04T10:51:15.702Z,59.29
2022-09-04T10:54:02.257Z,59.72
2022-09-04T10:56:51.265Z,59.74
2022-09-04T11:00:00.777Z,58.81
2022-09-04T11:03:08.047Z,59.10
2022-09-04T11:06:18.834Z,59.09
2022-09-04T11:09:16.141Z,58.30
2022-09-04T11:12:09.386Z,57.95
2022-09-04T11:14:59.653Z,58.17
2022-09-04T11:17:53.960Z,58.12
2022-09-04T11:21:09.297Z,58.32
2022-09-04T11:24:26.492Z,57.84
2022-09-04T11:27:47.753Z,58.18
2022-09-04T11:30:23.713Z,58.22
2022-09-04T11:33:33.189Z,57.96
2022-09-04T11:36:50.169Z,58.03
2022-09-04T11:39:47.066Z,57.50
2022-09-04T11:42:32.970Z,57.75
2022-09-04T11:45:41.399Z,57.47
2022-09-04T11:48:30.243Z,57.48
2022-09-04T11:51:20.086Z,56.85
2022-09-04T11:54:20.556Z,56.79
2022-09-04T11:57:08.159Z,56.54
2022-09-04T12:00:07.042Z,55.87
2022-09-04T12:03:10.399Z,56.06
2022-09-04T12:05:55.934Z,56.14
2022-09-04T12:09:00.866Z,55.89
2022-09-04T12:12:03.274Z,55.86
2022-09-04T12:14:49.637Z,55.82
2022-09-04T12:18:14.347Z,56.16
2022-09-04T12:21:23.312Z,55.51
2022-09-04T12:24:36.721Z,57.08
2022-09-04T12:27:35.023Z,56.04
2022-09-04T12:30:20.161Z,55.03
2022-09-04T12:33:24.563Z,56.17
2022-09-04T12:36:23.247Z,55.23
2022-09-04T12:39:25.645Z,55.39
2022-09-04T12:42:06.288Z,54.54
2022-09-04T12:44:51.376Z,53.91
2022-09-04T12:47:37.085Z,54.25
2022-09-04T12:50:28.354Z,55.09
2022-09-04T12:53:25.895Z,55.22
2022-09-04T12:56:06.059Z,54.98
2022-09-04T12:58:56.610Z,54.84
2022-09-04T13:01:39.568Z,55.26
2022-09-04T13:04:21.940Z,55.10
2022-09-04T13:07:16.006Z,54.85
2022-09-04T13:09:56.033Z,54.48
2022-09-04T13:12:38.599Z,54.24
2022-09-04T13:15:24.457Z,55.64
2022-09-04T13:18:08.292Z,55.21
2022-09-04T13:20:51.919Z,54.54
2022-09-04T13:23:37.437Z,53.87
2022-09-04T13:26:25.205Z,53.36
2022-09-04T13:29:16.919Z,52.48
2022-09-04T13:32:07.483Z,53.01
2022-09-04T13:34:58.621Z,53.46
2022-09-04T13:37:30.486Z,53.80
2022-09-04T13:40:18.104Z,54.33
2022-09-04T13:43:18.755Z,54.35
2022-09-04T13:45:55.523Z,54.28
2022-09-04T13:48:38.372Z,54.56
2022-09-04T13:51:14.867Z,54.84
2022-09-04T13:53:59.602Z,55.33
2022-09-04T13:56:36.509Z,55.42
2022-09-04T13:59:11.936Z,55.46
2022-09-04T14:01:47.969Z,55.74
2022-09-04T14:04:26.313Z,55.91
2022-09-04T14:07:07.089Z,55.95
2022-09-04T14:09:44.734Z,56.28
2022-09-04T14:12:33.005Z,56.94
2022-09-04T14:15:32.839Z,57.19
2022-09-04T14:18:17.767Z,57.91
2022-09-04T14:21:01.278Z,58.13
2022-09-04T14:23:47.219Z,58.23
2022-09-04T14:26:29.000Z,58.07
2022-09-04T14:29:08.572Z,58.60
2022-09-04T14:31:49.367Z,58.33
2022-09-04T14:34:36.195Z,58.02
2022-09-04T14:37:19.817Z,58.16
2022-09-04T14:39:58.794Z,58.40
2022-09-04T14:42:47.711Z,58.57
2022-09-04T14:45:35.364Z,58.84
2022-09-04T14:48:11.409Z,58.89
2022-09-04T14:50:49.574Z,58.58
2022-09-04T14:53:27.313Z,58.50
2022-09-04T14:56:32.270Z,58.69
2022-09-04T14:59:14.839Z,58.80
2022-09-04T15:02:19.073Z,58.88
2022-09-04T15:04:56.461Z,59.17
2022-09-04T15:08:03.808Z,59.14
2022-09-04T15:10:49.906Z,59.35
2022-09-04T15:13:54.246Z,59.65
2022-09-04T15:16:44.261Z,59.83
2022-09-04T15:19:31.937Z,60.00
2022-09-04T15:22:10.831Z,60.16
2022-09-04T15:24:58.448Z,60.54
2022-09-04T15:27:40.743Z,60.44
2022-09-04T15:30:21.832Z,60.64
2022-09-04T15:33:06.489Z,60.74
2022-09-04T15:35:39.589Z,60.93
2022-09-04T15:38:20.639Z,61.53
2022-09-04T15:41:17.738Z,63.08
2022-09-04T15:43:55.575Z,63.54
2022-09-04T15:46:44.269Z,64.01
2022-09-04T15:49:32.427Z,63.84
2022-09-04T15:52:20.010Z,64.02
2022-09-04T15:55:11.695Z,64.15
2022-09-04T15:57:58.515Z,62.48
2022-09-04T16:00:34.073Z,63.13
2022-09-04T16:03:16.610Z,62.59
2022-09-04T16:05:53.989Z,63.23
2022-09-04T16:08:33.437Z,64.96
2022-09-04T16:11:11.724Z,65.99
2022-09-04T16:13:58.077Z,65.52
2022-09-04T16:16:35.656Z,65.41
2022-09-04T16:19:15.953Z,64.62
2022-09-04T16:21:55.564Z,64.74
2022-09-04T16:24:35.604Z,64.76
2022-09-04T16:27:12.254Z,64.32
2022-09-04T16:29:51.116Z,64.40
2022-09-04T16:32:25.761Z,65.51
2022-09-04T16:35:03.189Z,65.59
2022-09-04T16:37:42.460Z,65.50
2022-09-04T16:40:28.369Z,66.17
2022-09-04T16:43:09.632Z,66.37
2022-09-04T16:45:49.589Z,66.18
2022-09-04T16:48:34.606Z,66.65
2022-09-04T16:51:39.238Z,66.55
2022-09-04T16:54:16.288Z,66.12
2022-09-04T16:56:50.772Z,65.60
2022-09-04T16:59:30.783Z,65.81
2022-09-04T17:02:06.546Z,66.10
2022-09-04T17:04:42.662Z,66.07
2022-09-04T17:07:20.209Z,66.24
2022-09-04T17:10:01.693Z,66.48
2022-09-04T17:12:47.363Z,66.24
2022-09-04T17:15:32.746Z,66.24
2022-09-04T17:18:09.600Z,65.90
2022-09-04T17:21:34.869Z,66.11
2022-09-04T17:28:58.184Z,66.23
2022-09-04T17:29:10.109Z,66.49
2022-09-04T17:29:44.577Z,65.81
2022-09-04T17:33:39.578Z,65.26
2022-09-04T17:40:42.889Z,65.43
2022-09-04T17:40:56.843Z,65.91
2022-09-04T17:41:36.462Z,66.03
2022-09-04T17:44:31.808Z,66.19
2022-09-04T17:47:19.282Z,66.99
2022-09-04T17:49:57.249Z,67.99
2022-09-04T17:52:32.176Z,68.47
2022-09-04T17:55:11.915Z,68.63
2022-09-04T17:58:00.420Z,68.81
2022-09-04T18:00:35.484Z,69.05
2022-09-04T18:03:29.772Z,69.05
2022-09-04T18:06:10.456Z,69.21
2022-09-04T18:08:55.650Z,69.48
2022-09-04T18:11:34.421Z,69.91
2022-09-04T18:14:13.570Z,70.37
2022-09-04T18:17:12.787Z,70.06
2022-09-04T18:19:47.699Z,69.29
2022-09-04T18:22:31.852Z,69.18
2022-09-04T18:25:17.221Z,69.20
2022-09-04T18:28:11.666Z,69.08
2022-09-04T18:37:05.870Z,68.25
2022-09-04T18:37:16.433Z,69.25
2022-09-04T18:37:24.419Z,68.82
2022-09-04T18:40:07.139Z,69.40
2022-09-04T18:50:17.468Z,69.66
2022-09-04T18:50:30.864Z,70.13
2022-09-04T18:50:32.525Z,69.68
2022-09-04T18:51:51.112Z,70.40
2022-09-04T18:54:28.292Z,70.49
2022-09-04T18:57:13.758Z,70.38
2022-09-04T18:59:55.743Z,70.22
2022-09-04T19:02:52.858Z,70.52
2022-09-04T19:05:44.821Z,70.69
2022-09-04T19:08:19.919Z,70.27
2022-09-04T19:10:56.506Z,70.15
2022-09-04T19:13:34.731Z,70.37
2022-09-04T19:16:12.347Z,70.45
2022-09-04T19:18:52.470Z,70.42
2022-09-04T19:21:32.357Z,70.55
2022-09-04T19:24:28.679Z,70.75
2022-09-04T19:27:26.502Z,70.62
2022-09-04T19:30:18.014Z,70.39
2022-09-04T19:33:00.054Z,70.43
2022-09-04T19:35:38.721Z,70.76
2022-09-04T19:42:02.957Z,71.07
2022-09-04T19:46:03.654Z,71.03
2022-09-04T19:46:16.323Z,70.95
2022-09-04T19:47:29.614Z,71.03
2022-09-04T19:53:19.942Z,71.08
2022-09-04T19:53:37.928Z,71.24
2022-09-04T19:56:21.928Z,71.33
2022-09-04T19:59:11.267Z,71.17
2022-09-04T20:01:47.766Z,71.16
2022-09-04T20:04:38.587Z,70.97
2022-09-04T20:07:31.303Z,70.94
2022-09-04T20:10:16.637Z,71.15
2022-09-04T20:12:51.379Z,71.24
2022-09-04T20:15:31.441Z,71.37
2022-09-04T20:18:12.507Z,71.43
2022-09-04T20:20:54.850Z,71.51
2022-09-04T20:23:39.052Z,71.66
2022-09-04T20:26:21.289Z,71.44
2022-09-04T20:29:09.504Z,71.55
2022-09-04T20:31:57.617Z,71.69
2022-09-04T20:34:41.126Z,71.81
2022-09-04T20:37:32.455Z,72.03
2022-09-04T20:40:11.353Z,72.22
2022-09-04T20:42:56.500Z,72.56
2022-09-04T20:50:00.615Z,72.60
2022-09-04T20:52:52.983Z,72.43
2022-09-04T20:52:59.186Z,72.51
2022-09-04T20:54:45.497Z,72.55
2022-09-04T20:59:35.936Z,72.34
2022-09-04T21:03:11.087Z,72.00
2022-09-04T21:03:35.183Z,72.34
2022-09-04T21:06:26.626Z,72.54
2022-09-04T21:09:07.618Z,72.81
2022-09-04T21:11:43.656Z,72.84
2022-09-04T21:14:21.753Z,72.90
2022-09-04T21:17:35.171Z,72.90
2022-09-04T21:20:27.094Z,73.11
2022-09-04T21:23:05.576Z,73.09
2022-09-04T21:25:50.281Z,73.00
2022-09-04T21:28:34.554Z,72.87
2022-09-04T21:31:21.022Z,73.12
2022-09-04T21:34:13.668Z,73.20
2022-09-04T21:36:54.839Z,73.20
2022-09-04T21:39:58.573Z,73.29
2022-09-04T21:43:05.659Z,73.37
2022-09-04T21:45:53.353Z,73.44
2022-09-04T21:48:40.919Z,73.30
2022-09-04T21:51:30.658Z,73.23
2022-09-04T21:55:42.532Z,73.15
2022-09-04T22:02:29.348Z,73.03
2022-09-04T22:02:37.438Z,72.98
2022-09-04T22:03:44.674Z,73.06
2022-09-04T22:06:49.452Z,72.87
2022-09-04T22:13:29.561Z,72.66
2022-09-04T22:13:39.417Z,72.72
2022-09-04T22:15:46.871Z,72.55
2022-09-04T22:18:41.554Z,72.95
2022-09-04T22:21:36.845Z,73.05
2022-09-04T22:24:27.675Z,73.08
2022-09-04T22:27:29.461Z,73.16
2022-09-04T22:30:15.180Z,73.17
2022-09-04T22:32:54.737Z,73.31
2022-09-04T22:36:13.306Z,73.42
2022-09-04T22:39:14.728Z,73.30
2022-09-04T22:42:06.931Z,73.70
2022-09-04T22:45:09.671Z,74.05
2022-09-04T22:47:49.299Z,73.94
2022-09-04T22:50:50.860Z,73.96
2022-09-04T22:53:40.331Z,74.19
2022-09-04T22:56:24.107Z,74.31
2022-09-04T22:59:26.930Z,74.48
2022-09-04T23:03:04.227Z,74.59
2022-09-04T23:06:08.810Z,74.64
2022-09-04T23:13:48.668Z,74.71
2022-09-04T23:13:56.569Z,74.63
2022-09-04T23:15:37.343Z,74.70
2022-09-04T23:19:19.111Z,74.59
2022-09-04T23:26:33.101Z,74.32
2022-09-04T23:26:53.586Z,74.32
2022-09-04T23:28:15.482Z,74.44
2022-09-04T23:31:13.294Z,74.75
2022-09-04T23:34:39.114Z,74.98
2022-09-04T23:37:47.599Z,75.20
2022-09-04T23:40:51.338Z,75.16
2022-09-04T23:44:06.461Z,75.23
2022-09-04T23:47:20.392Z,75.03
2022-09-04T23:50:33.555Z,75.05
2022-09-04T23:53:36.855Z,75.08
2022-09-04T23:56:32.318Z,74.98
2022-09-04T23:59:37.605Z,74.75
